createdAt,value
2023-03-12T00:03:21.665Z,100087.03
2023-03-12T00:08:20.576Z,100085.69
2023-03-12T00:13:17.523Z,100074.91
2023-03-12T00:18:16.531Z,100098.22
2023-03-12T00:23:13.530Z,100089.69
2023-03-12T00:28:11.893Z,100099.78
2023-03-12T00:33:08.872Z,100094.84
2023-03-12T00:38:18.867Z,100073.50
2023-03-12T00:43:20.436Z,100089.34
2023-03-12T00:48:19.813Z,100091.72
2023-03-12T00:53:17.388Z,100098.03
2023-03-12T00:58:19.258Z,100088.84
2023-03-12T01:03:16.373Z,100073.75
2023-03-12T01:08:13.213Z,100074.75
2023-03-12T01:13:10.924Z,100074.00
2023-03-12T01:18:10.224Z,100065.81
2023-03-12T01:23:07.214Z,100056.00
2023-03-12T01:28:08.208Z,100072.63
2023-03-12T01:33:11.007Z,100075.28
2023-03-12T01:38:08.277Z,100083.03
2023-03-12T01:43:26.773Z,100087.81
2023-03-12T01:48:27.928Z,100097.03
2023-03-12T01:53:25.331Z,100112.59
2023-03-12T01:58:24.001Z,100116.25
2023-03-12T02:03:29.164Z,100123.53
2023-03-12T02:08:26.281Z,100124.59
2023-03-12T02:13:23.468Z,100137.41
2023-03-12T02:18:23.376Z,100140.53
2023-03-12T02:23:26.498Z,100151.09
2023-03-12T02:28:25.821Z,100152.16
2023-03-12T02:33:26.263Z,100151.47
2023-03-12T02:38:38.024Z,100168.28
2023-03-12T02:43:36.491Z,100172.50
2023-03-12T02:48:33.826Z,100178.78
2023-03-12T02:53:30.838Z,100187.94
2023-03-12T02:58:28.202Z,100197.47
2023-03-12T03:03:26.004Z,100203.94
2023-03-12T03:08:23.475Z,100207.53
2023-03-12T03:13:20.330Z,100218.63
2023-03-12T03:18:17.796Z,100226.34
2023-03-12T03:23:15.508Z,100243.16
2023-03-12T03:28:13.588Z,100252.72
2023-03-12T03:33:15.133Z,100259.56
2023-03-12T03:38:14.054Z,100279.38
2023-03-12T03:43:11.939Z,100283.91
2023-03-12T03:48:12.166Z,100280.25
2023-03-12T03:53:09.332Z,100302.72
2023-03-12T03:58:06.395Z,100286.53
2023-03-12T04:03:05.972Z,100316.66
2023-03-12T04:08:05.292Z,100319.47
2023-03-12T04:13:03.126Z,100314.50
2023-03-12T04:18:00.622Z,100330.00
2023-03-12T04:23:00.638Z,100334.25
2023-03-12T04:27:57.606Z,100338.47
2023-03-12T04:32:55.123Z,100349.88
2023-03-12T04:37:52.417Z,100362.88
2023-03-12T04:42:53.414Z,100365.53
2023-03-12T04:47:53.404Z,100385.19
2023-03-12T04:52:51.912Z,100392.97
2023-03-12T04:57:49.065Z,100400.00
2023-03-12T05:02:56.798Z,100408.06
2023-03-12T05:07:53.662Z,100411.38
2023-03-12T05:12:50.669Z,100405.94
2023-03-12T05:17:50.357Z,100437.44
2023-03-12T05:22:50.282Z,100437.72
2023-03-12T05:27:47.356Z,100453.22
2023-03-12T05:32:46.134Z,100462.31
2023-03-12T05:37:45.984Z,100480.59
2023-03-12T05:42:42.929Z,100490.31
2023-03-12T05:47:39.915Z,100496.75
2023-03-12T05:52:38.172Z,100523.63
2023-03-12T05:57:37.227Z,100526.91
2023-03-12T06:02:39.664Z,100535.75
2023-03-12T06:07:37.500Z,100547.13
2023-03-12T06:12:36.697Z,100562.16
2023-03-12T06:17:34.075Z,100571.28
2023-03-12T06:22:33.486Z,100591.19
2023-03-12T06:27:31.743Z,100601.69
2023-03-12T06:32:39.736Z,100598.94
2023-03-12T06:37:39.866Z,100621.53
2023-03-12T06:42:37.360Z,100632.06
2023-03-12T06:47:35.107Z,100634.19
2023-03-12T06:52:32.525Z,100625.94
2023-03-12T06:57:29.333Z,100630.34
2023-03-12T07:02:35.868Z,100631.34
2023-03-12T07:07:32.779Z,100628.34
2023-03-12T07:12:31.000Z,100646.22
2023-03-12T07:17:30.356Z,100664.03
2023-03-12T07:22:36.028Z,100655.72
2023-03-12T07:27:34.424Z,100664.28
2023-03-12T07:32:35.993Z,100674.53
2023-03-12T07:37:34.722Z,100680.34
2023-03-12T07:42:36.089Z,100686.84
2023-03-12T07:47:40.968Z,100693.69
2023-03-12T07:52:49.193Z,100680.47
2023-03-12T07:57:59.843Z,100709.97
2023-03-12T08:03:01.448Z,100723.81
2023-03-12T08:08:08.169Z,100717.84
2023-03-12T08:13:08.567Z,100737.19
2023-03-12T08:18:07.274Z,100724.44
2023-03-12T08:23:05.336Z,100763.59
2023-03-12T08:28:04.990Z,100741.59
2023-03-12T08:33:03.330Z,100788.34
2023-03-12T08:38:00.529Z,100788.16
2023-03-12T08:42:57.571Z,100784.31
2023-03-12T08:47:59.466Z,100791.69
2023-03-12T08:52:58.376Z,100799.78
2023-03-12T08:58:02.853Z,100807.47
2023-03-12T09:03:16.683Z,100800.66
2023-03-12T09:08:14.986Z,100805.16
2023-03-12T09:13:14.627Z,100800.69
2023-03-12T09:18:29.323Z,100803.31
2023-03-12T09:23:28.214Z,100815.97
2023-03-12T09:28:31.093Z,100812.91
2023-03-12T09:33:31.452Z,100821.19
2023-03-12T09:38:35.145Z,100824.13
2023-03-12T09:43:41.850Z,100827.88
2023-03-12T09:48:41.770Z,100831.69
2023-03-12T09:53:46.045Z,100836.25
2023-03-12T09:58:47.598Z,100844.28
2023-03-12T10:04:01.578Z,100856.59
2023-03-12T10:09:06.543Z,100839.13
2023-03-12T10:14:10.828Z,100863.69
2023-03-12T10:19:28.057Z,100874.31
2023-03-12T10:24:40.089Z,100870.72
2023-03-12T10:29:39.828Z,100867.19
2023-03-12T10:34:54.820Z,100865.19
2023-03-12T10:39:58.295Z,100866.34
2023-03-12T10:45:11.631Z,100863.03
2023-03-12T10:50:20.535Z,100876.38
2023-03-12T10:55:35.190Z,100863.75
2023-03-12T11:00:33.976Z,100865.72
2023-03-12T11:05:33.746Z,100875.13
2023-03-12T11:10:49.574Z,100875.66
2023-03-12T11:15:49.178Z,100866.47
2023-03-12T11:20:53.680Z,100869.16
2023-03-12T11:25:58.728Z,100871.31
2023-03-12T11:31:00.416Z,100862.06
2023-03-12T11:36:06.572Z,100860.94
2023-03-12T11:41:10.641Z,100861.94
2023-03-12T11:46:31.334Z,100852.84
2023-03-12T11:51:37.756Z,100858.53
2023-03-12T11:56:43.871Z,100853.13
2023-03-12T12:01:55.008Z,100852.44
2023-03-12T12:07:06.873Z,100860.28
2023-03-12T12:12:15.209Z,100864.47
2023-03-12T12:17:36.969Z,100865.88
2023-03-12T12:22:43.651Z,100858.44
2023-03-12T12:27:45.343Z,100856.75
2023-03-12T12:33:03.575Z,100863.31
2023-03-12T12:38:16.110Z,100866.19
2023-03-12T12:43:37.254Z,100875.28
2023-03-12T12:48:36.626Z,100885.47
2023-03-12T12:53:42.656Z,100894.19
2023-03-12T12:58:56.306Z,100888.25
2023-03-12T13:03:56.857Z,100895.22
2023-03-12T13:09:27.209Z,100891.91
2023-03-12T13:14:45.371Z,100902.16
2023-03-12T13:19:52.280Z,100897.75
2023-03-12T13:25:07.119Z,100902.75
2023-03-12T13:30:24.573Z,100908.31
2023-03-12T13:35:33.001Z,100907.09
2023-03-12T13:40:39.696Z,100914.19
2023-03-12T13:45:40.749Z,100922.94
2023-03-12T13:50:43.557Z,100924.00
2023-03-12T13:55:49.129Z,100919.78
2023-03-12T14:06:29.754Z,100936.19
2023-03-12T14:11:40.538Z,100938.69
2023-03-12T14:16:45.464Z,100935.44
2023-03-12T14:21:49.457Z,100938.41
2023-03-12T14:26:49.497Z,100938.00
2023-03-12T14:31:54.162Z,100948.91
2023-03-12T14:37:00.165Z,100938.38
2023-03-12T14:42:25.463Z,100951.56
2023-03-12T14:47:24.425Z,100960.28
2023-03-12T14:52:23.470Z,100952.25
2023-03-12T14:57:41.148Z,100963.59
2023-03-12T15:02:43.611Z,100966.03
2023-03-12T15:07:45.494Z,100976.06
2023-03-12T15:12:50.034Z,100982.81
2023-03-12T15:17:50.499Z,100987.56
2023-03-12T15:22:50.030Z,100990.13
2023-03-12T15:27:48.413Z,101005.44
2023-03-12T15:33:01.362Z,100995.81
2023-03-12T15:38:08.164Z,101020.28
2023-03-12T15:43:07.122Z,101029.88
2023-03-12T15:48:06.282Z,101031.03
2023-03-12T15:53:07.949Z,101038.91
2023-03-12T15:58:25.502Z,101054.41
2023-03-12T16:03:27.995Z,101059.91
2023-03-12T16:08:49.177Z,101069.56
2023-03-12T16:13:49.949Z,101074.53
2023-03-12T16:18:47.550Z,101071.50
2023-03-12T16:23:56.702Z,101094.88
2023-03-12T16:28:55.764Z,101105.38
2023-03-12T16:34:05.979Z,101125.38
2023-03-12T16:39:18.911Z,101134.53
2023-03-12T16:44:20.070Z,101136.25
2023-03-12T16:49:20.492Z,101148.47
2023-03-12T16:54:20.714Z,101148.50
2023-03-12T16:59:27.928Z,101175.31
2023-03-12T17:04:25.034Z,101173.53
2023-03-12T17:09:25.963Z,101184.72
2023-03-12T17:14:27.633Z,101191.44
2023-03-12T17:19:26.748Z,101197.91
2023-03-12T17:24:27.792Z,101214.53
2023-03-12T17:29:27.637Z,101224.78
2023-03-12T17:34:32.800Z,101232.88
2023-03-12T17:39:30.563Z,101244.09
2023-03-12T17:44:33.442Z,101255.53
2023-03-12T17:49:31.757Z,101255.09
2023-03-12T17:54:28.740Z,101257.59
2023-03-12T17:59:30.608Z,101269.78
2023-03-12T18:04:33.041Z,101265.84
2023-03-12T18:09:31.142Z,101276.25
2023-03-12T18:14:29.504Z,101265.16
2023-03-12T18:19:28.895Z,101282.50
2023-03-12T18:24:26.891Z,101289.66
2023-03-12T18:29:29.201Z,101299.94
2023-03-12T18:34:26.848Z,101305.88
2023-03-12T18:39:23.927Z,101319.75
2023-03-12T18:44:20.963Z,101324.75
2023-03-12T18:49:19.682Z,101325.38
2023-03-12T18:54:19.843Z,101321.13
2023-03-12T18:59:18.933Z,101342.72
2023-03-12T19:04:18.944Z,101343.78
2023-03-12T19:09:19.333Z,101341.47
2023-03-12T19:14:21.899Z,101353.88
2023-03-12T19:19:22.265Z,101360.31
2023-03-12T19:24:22.362Z,101362.13
2023-03-12T19:29:28.961Z,101366.97
2023-03-12T19:34:25.918Z,101368.66
2023-03-12T19:39:23.070Z,101382.34
2023-03-12T19:44:20.137Z,101391.91
2023-03-12T19:49:17.950Z,101397.25
2023-03-12T19:54:17.268Z,101403.34
2023-03-12T19:59:24.266Z,101409.94
2023-03-12T20:04:24.212Z,101419.25
2023-03-12T20:09:30.295Z,101426.69
2023-03-12T20:14:27.655Z,101431.56
2023-03-12T20:19:27.082Z,101436.91
2023-03-12T20:24:27.000Z,101439.81
2023-03-12T20:29:31.216Z,101447.16
2023-03-12T20:34:33.024Z,101463.06
2023-03-12T20:39:40.905Z,101466.69
2023-03-12T20:44:40.960Z,101473.56
2023-03-12T20:49:38.566Z,101476.66
2023-03-12T20:54:37.632Z,101486.66
2023-03-12T20:59:34.784Z,101488.81
2023-03-12T21:04:34.323Z,101487.03
2023-03-12T21:09:36.502Z,101491.53
2023-03-12T21:14:34.923Z,101487.91
2023-03-12T21:19:31.916Z,101494.25
2023-03-12T21:24:29.027Z,101497.72
2023-03-12T21:29:26.615Z,101512.22
2023-03-12T21:34:23.775Z,101505.50
2023-03-12T21:39:22.516Z,101505.00
2023-03-12T21:44:23.324Z,101511.88
2023-03-12T21:49:21.248Z,101512.72
2023-03-12T21:54:18.604Z,101508.34
2023-03-12T21:59:15.543Z,101512.59
2023-03-12T22:04:16.320Z,101522.88
2023-03-12T22:09:14.028Z,101528.03
2023-03-12T22:14:10.942Z,101530.25
2023-03-12T22:19:10.602Z,101531.47
2023-03-12T22:24:07.730Z,101537.75
2023-03-12T22:29:07.554Z,101540.97
2023-03-12T22:34:04.544Z,101547.34
2023-03-12T22:39:07.328Z,101551.88
2023-03-12T22:44:10.648Z,101555.22
2023-03-12T22:49:08.345Z,101557.88
2023-03-12T22:54:08.137Z,101561.03
2023-03-12T22:59:06.274Z,101572.69
2023-03-12T23:04:03.529Z,101578.72
2023-03-12T23:09:03.631Z,101585.72
2023-03-12T23:14:00.498Z,101576.03
2023-03-12T23:19:00.204Z,101584.94
2023-03-12T23:23:59.062Z,101585.03
2023-03-12T23:28:57.585Z,101601.59
2023-03-12T23:33:54.695Z,101599.06
2023-03-12T23:38:52.182Z,101605.16
2023-03-12T23:43:49.456Z,101605.09
2023-03-12T23:48:48.876Z,101609.53
2023-03-12T23:53:51.973Z,101609.47
2023-03-12T23:58:53.666Z,101614.69
